Time;durP1;ratioP1;P1;durP2;ratioP2;P2;SDS_P1;SDS_P2;PMS_P1;PMS_P2;Temp;Humidity;BMP_temperature;BMP_pressure;BME280_temperature;BME280_humidity;BME280_pressure;Samples;Min_cycle;Max_cycle;Signal;HPM_P1;HPM_P2
2020/12/29 00:01:41;;;;;;;4.97;4.05;;;3.00;99.80;;;;;;5063673;27;20315;-89
2020/12/29 00:04:10;;;;;;;6.55;4.65;;;3.10;99.80;;;;;;5092167;27;20595;-87
2020/12/29 00:06:44;;;;;;;5.07;4.30;;;3.10;99.80;;;;;;5088221;28;20225;-87
2020/12/29 00:09:11;;;;;;;5.70;4.20;;;3.10;99.80;;;;;;5085999;27;20686;-87
2020/12/29 00:11:39;;;;;;;7.03;4.97;;;3.10;99.80;;;;;;5075542;28;20227;-87
2020/12/29 00:14:08;;;;;;;6.50;4.40;;;3.10;99.80;;;;;;5075769;27;20301;-87
2020/12/29 00:16:35;;;;;;;5.32;3.88;;;3.10;99.80;;;;;;5057314;27;20226;-87
2020/12/29 00:19:04;;;;;;;5.30;4.05;;;3.10;99.80;;;;;;5095430;27;20224;-88
2020/12/29 00:21:31;;;;;;;6.80;4.60;;;3.10;99.80;;;;;;5084592;28;20232;-88
2020/12/29 00:23:58;;;;;;;5.15;4.20;;;3.20;99.80;;;;;;5070582;27;20259;-87
2020/12/29 00:26:26;;;;;;;3.30;3.00;;;3.20;99.80;;;;;;5078279;28;20223;-86
2020/12/29 00:28:54;;;;;;;3.97;3.00;;;3.20;99.80;;;;;;5079918;27;20303;-87
2020/12/29 00:31:22;;;;;;;3.38;2.67;;;3.20;99.80;;;;;;5077347;27;20657;-87
2020/12/29 00:33:50;;;;;;;4.22;3.10;;;3.20;99.80;;;;;;5089894;27;20718;-87
2020/12/29 00:36:19;;;;;;;3.92;2.60;;;3.20;99.80;;;;;;5086655;27;20290;-88
2020/12/29 00:38:47;;;;;;;3.63;3.33;;;3.10;99.80;;;;;;5087071;28;20260;-87
2020/12/29 00:41:14;;;;;;;5.20;4.00;;;3.10;99.80;;;;;;5087236;28;21040;-87
2020/12/29 00:44:04;;;;;;;9.63;3.13;;;3.10;99.80;;;;;;5073244;28;20315;-88
2020/12/29 00:46:32;;;;;;;6.25;4.07;;;3.00;99.80;;;;;;5081638;27;20224;-86
2020/12/29 00:48:59;;;;;;;3.83;3.20;;;3.00;99.80;;;;;;5077840;28;20225;-87
2020/12/29 00:51:27;;;;;;;8.05;3.55;;;2.90;99.80;;;;;;5091925;28;20243;-87
2020/12/29 00:53:54;;;;;;;2.97;2.65;;;2.90;99.80;;;;;;5081493;28;20227;-86
2020/12/29 00:56:22;;;;;;;3.60;3.00;;;2.80;99.80;;;;;;5073763;27;20311;-87
2020/12/29 00:58:49;;;;;;;2.90;2.70;;;2.80;99.80;;;;;;5073609;27;20315;-88
2020/12/29 01:01:16;;;;;;;3.88;3.15;;;2.80;99.80;;;;;;5058761;27;20329;-87
2020/12/29 01:03:43;;;;;;;2.85;2.65;;;2.70;99.80;;;;;;5082272;27;20261;-86
2020/12/29 01:06:11;;;;;;;4.60;2.70;;;2.70;99.80;;;;;;5106224;27;20239;-87
2020/12/29 01:08:39;;;;;;;6.10;2.80;;;2.60;99.80;;;;;;5090375;27;20223;-86
2020/12/29 01:11:06;;;;;;;4.28;3.35;;;2.60;99.80;;;;;;5089699;28;20597;-86
2020/12/29 01:13:53;;;;;;;3.15;2.80;;;2.60;99.80;;;;;;5089018;27;20277;-86
2020/12/29 01:16:21;;;;;;;4.32;3.03;;;2.60;99.80;;;;;;5087873;27;20228;-87
2020/12/29 01:18:48;;;;;;;7.90;4.10;;;2.60;99.80;;;;;;5091350;27;20243;-86
2020/12/29 01:21:15;;;;;;;5.18;4.20;;;2.50;99.80;;;;;;5089913;28;20305;-87
2020/12/29 01:23:43;;;;;;;9.02;3.53;;;2.50;99.80;;;;;;5082000;28;20234;-87
2020/12/29 01:26:10;;;;;;;4.18;3.50;;;2.50;99.80;;;;;;5073517;27;20216;-87
2020/12/29 01:28:38;;;;;;;10.63;4.00;;;2.50;99.80;;;;;;5072259;27;20658;-86
2020/12/29 01:31:05;;;;;;;5.80;4.05;;;2.50;99.80;;;;;;5056065;27;20220;-87
2020/12/29 01:33:32;;;;;;;4.47;3.92;;;2.50;99.80;;;;;;5084740;27;20635;-86
2020/12/29 01:35:59;;;;;;;5.75;3.13;;;2.60;99.80;;;;;;5071696;27;20749;-86
2020/12/29 01:38:26;;;;;;;5.30;3.83;;;2.50;99.80;;;;;;5074176;28;20251;-86
2020/12/29 01:40:59;;;;;;;6.55;4.13;;;2.60;99.80;;;;;;5079543;28;20223;-86
2020/12/29 01:43:28;;;;;;;6.53;3.80;;;2.60;99.80;;;;;;5075475;28;20286;-86
2020/12/29 01:45:56;;;;;;;11.43;4.75;;;2.60;99.80;;;;;;5057839;28;20625;-86
2020/12/29 01:48:25;;;;;;;6.95;4.25;;;2.60;99.80;;;;;;5088829;27;20303;-86
2020/12/29 01:50:52;;;;;;;5.45;4.65;;;2.60;99.80;;;;;;5070796;28;20229;-86
2020/12/29 01:53:19;;;;;;;7.55;4.32;;;2.60;99.80;;;;;;5070331;28;21419;-88
2020/12/29 01:55:46;;;;;;;4.60;3.80;;;2.70;99.80;;;;;;5054836;28;20244;-86
2020/12/29 01:58:17;;;;;;;5.45;4.20;;;2.70;99.80;;;;;;5072346;28;20260;-87
2020/12/29 02:00:45;;;;;;;5.95;3.70;;;2.80;99.80;;;;;;5069242;28;20237;-88
2020/12/29 02:03:14;;;;;;;4.65;4.05;;;2.80;99.80;;;;;;5074626;28;20234;-87
2020/12/29 02:05:42;;;;;;;5.95;4.30;;;2.80;99.80;;;;;;5077862;28;20242;-88
2020/12/29 02:08:09;;;;;;;5.72;4.75;;;2.80;99.80;;;;;;5086419;28;20223;-86
2020/12/29 02:10:36;;;;;;;6.28;4.53;;;2.90;99.80;;;;;;5070564;28;20230;-87
2020/12/29 02:13:03;;;;;;;5.80;4.30;;;2.90;99.80;;;;;;5060338;28;20314;-87
2020/12/29 02:15:33;;;;;;;7.55;4.85;;;2.90;99.80;;;;;;5071875;28;20227;-86
2020/12/29 02:18:00;;;;;;;5.95;3.83;;;3.00;99.80;;;;;;5082850;28;20220;-86
2020/12/29 02:20:27;;;;;;;6.20;4.00;;;3.00;99.80;;;;;;5088576;28;20228;-87
2020/12/29 02:22:58;;;;;;;5.28;3.55;;;2.90;99.80;;;;;;5089322;28;20230;-87
2020/12/29 02:25:24;;;;;;;3.95;3.50;;;3.00;99.80;;;;;;5089627;28;20960;-87
2020/12/29 02:27:52;;;;;;;3.15;2.95;;;3.00;99.80;;;;;;5076489;28;20722;-86
2020/12/29 02:30:21;;;;;;;3.70;3.38;;;3.00;99.80;;;;;;5081282;28;20256;-86
2020/12/29 02:32:48;;;;;;;8.25;4.60;;;3.00;99.80;;;;;;5081462;28;20227;-86
2020/12/29 02:35:15;;;;;;;3.38;3.08;;;3.00;99.80;;;;;;5091674;28;20306;-87
2020/12/29 02:37:43;;;;;;;5.65;4.30;;;3.10;99.80;;;;;;5080271;28;20772;-87
2020/12/29 02:40:10;;;;;;;4.22;3.80;;;3.00;99.80;;;;;;5081929;28;20270;-86
2020/12/29 02:42:38;;;;;;;5.10;3.20;;;3.10;99.80;;;;;;5062077;28;20252;-86
2020/12/29 02:45:05;;;;;;;6.53;3.13;;;3.10;99.80;;;;;;5056106;28;20238;-89
2020/12/29 02:47:32;;;;;;;5.15;3.38;;;3.10;99.80;;;;;;5081096;28;20228;-88
2020/12/29 02:49:59;;;;;;;5.97;3.03;;;3.10;99.80;;;;;;5091253;28;20236;-87
2020/12/29 02:52:26;;;;;;;4.97;3.90;;;3.10;99.80;;;;;;5088668;28;20234;-86
2020/12/29 02:54:53;;;;;;;3.78;3.35;;;3.00;99.80;;;;;;5086611;28;20234;-87
2020/12/29 02:57:21;;;;;;;4.60;4.20;;;3.00;99.80;;;;;;5086076;28;20226;-86
2020/12/29 02:59:48;;;;;;;3.40;3.10;;;3.00;99.80;;;;;;5088381;28;20232;-86
2020/12/29 03:02:15;;;;;;;3.67;3.20;;;3.10;99.80;;;;;;5093357;28;20706;-88
2020/12/29 03:04:42;;;;;;;3.90;3.25;;;3.00;99.80;;;;;;5093437;28;20307;-86
2020/12/29 03:07:09;;;;;;;4.38;3.25;;;3.10;99.80;;;;;;5093564;28;20614;-87
2020/12/29 03:09:40;;;;;;;4.82;3.38;;;3.10;99.80;;;;;;5093496;28;20209;-88
2020/12/29 03:12:07;;;;;;;4.25;3.50;;;3.10;99.80;;;;;;5093012;28;20908;-88
2020/12/29 03:14:35;;;;;;;5.57;3.83;;;3.10;99.80;;;;;;5093223;28;20200;-87
2020/12/29 03:17:02;;;;;;;4.10;3.10;;;3.10;99.80;;;;;;5093673;28;20204;-87
2020/12/29 03:19:29;;;;;;;4.13;3.75;;;3.10;99.80;;;;;;5064102;27;20223;-88
2020/12/29 03:21:56;;;;;;;3.90;3.03;;;3.00;99.80;;;;;;5052173;27;20711;-87
2020/12/29 03:24:23;;;;;;;3.83;3.25;;;3.10;99.80;;;;;;5088596;27;20785;-89
2020/12/29 03:26:51;;;;;;;5.63;3.58;;;3.00;99.80;;;;;;5083759;27;20224;-87
2020/12/29 03:29:18;;;;;;;4.15;3.28;;;3.00;99.80;;;;;;5066131;28;20601;-89
2020/12/29 03:31:46;;;;;;;4.00;3.60;;;3.00;99.80;;;;;;5097617;27;20224;-88
2020/12/29 03:34:21;;;;;;;2.63;2.42;;;3.00;99.80;;;;;;5090055;28;20219;-87
2020/12/29 03:36:48;;;;;;;3.25;2.95;;;3.10;99.80;;;;;;5090076;27;20306;-87
2020/12/29 03:39:15;;;;;;;4.88;3.63;;;3.10;99.80;;;;;;5089774;28;20276;-86
2020/12/29 03:41:42;;;;;;;4.55;3.50;;;3.10;99.80;;;;;;5090311;28;20234;-87
2020/12/29 03:44:09;;;;;;;4.22;3.40;;;3.10;99.80;;;;;;5089564;28;20316;-86
2020/12/29 03:46:37;;;;;;;4.38;3.67;;;3.10;99.80;;;;;;5090053;28;20688;-87
2020/12/29 03:49:05;;;;;;;4.70;3.55;;;3.20;99.80;;;;;;5090351;28;20942;-88
2020/12/29 03:51:32;;;;;;;3.30;3.00;;;3.20;99.80;;;;;;5089176;28;20285;-87
2020/12/29 03:53:59;;;;;;;3.55;3.25;;;3.20;99.80;;;;;;5089326;28;20226;-86
2020/12/29 03:56:26;;;;;;;4.45;3.25;;;3.30;99.80;;;;;;5090159;28;20708;-86
2020/12/29 03:58:53;;;;;;;4.10;3.63;;;3.30;99.80;;;;;;5089122;28;20224;-87
2020/12/29 04:01:19;;;;;;;4.32;3.30;;;3.30;99.80;;;;;;5089621;28;20735;-87
2020/12/29 04:03:47;;;;;;;4.68;3.45;;;3.30;99.80;;;;;;5089694;28;20220;-88
2020/12/29 04:06:14;;;;;;;5.53;4.15;;;3.30;99.80;;;;;;5088814;28;20239;-87
2020/12/29 04:08:42;;;;;;;4.65;3.47;;;3.30;99.80;;;;;;5089753;27;20238;-86
2020/12/29 04:11:10;;;;;;;3.35;2.75;;;3.30;99.80;;;;;;5089730;27;20220;-87
2020/12/29 04:13:52;;;;;;;4.47;3.42;;;3.30;99.80;;;;;;5090473;27;20224;-87
2020/12/29 04:16:21;;;;;;;4.25;3.38;;;3.40;99.80;;;;;;5090020;27;20259;-86
2020/12/29 04:18:48;;;;;;;3.15;2.85;;;3.30;99.80;;;;;;5065635;27;20227;-87
2020/12/29 04:21:16;;;;;;;5.95;4.40;;;3.40;99.80;;;;;;5054409;27;20852;-86
2020/12/29 04:23:43;;;;;;;3.40;3.10;;;3.40;99.80;;;;;;5061919;27;20705;-86
2020/12/29 04:26:12;;;;;;;4.65;3.40;;;3.40;99.80;;;;;;5054010;28;20238;-86
2020/12/29 04:28:39;;;;;;;7.40;3.45;;;3.40;99.80;;;;;;5053814;28;20239;-86
2020/12/29 04:31:08;;;;;;;3.30;2.97;;;3.40;99.80;;;;;;5055166;28;20228;-86
2020/12/29 04:33:36;;;;;;;4.22;2.97;;;3.40;99.80;;;;;;5063380;28;20223;-86
2020/12/29 04:36:03;;;;;;;4.20;3.10;;;3.40;99.80;;;;;;5080631;28;20255;-87
2020/12/29 04:38:31;;;;;;;4.28;3.55;;;3.40;99.80;;;;;;5083124;27;20309;-87
2020/12/29 04:40:58;;;;;;;4.25;3.83;;;3.50;99.80;;;;;;5083952;28;20221;-87
2020/12/29 04:43:26;;;;;;;3.53;3.22;;;3.50;99.80;;;;;;5080430;28;20229;-86
2020/12/29 04:45:58;;;;;;;4.85;3.78;;;3.50;99.80;;;;;;5080696;28;20224;-87
2020/12/29 04:48:26;;;;;;;4.05;3.70;;;3.50;99.80;;;;;;5081733;28;20231;-87
2020/12/29 04:50:57;;;;;;;5.78;3.22;;;3.50;99.80;;;;;;5063405;28;20224;-87
2020/12/29 04:53:26;;;;;;;3.42;3.00;;;3.50;99.80;;;;;;5060836;27;20245;-85
2020/12/29 04:55:57;;;;;;;4.55;3.22;;;3.50;99.80;;;;;;5060285;27;20227;-86
2020/12/29 04:58:31;;;;;;;4.40;3.20;;;3.50;99.80;;;;;;5070314;27;20234;-86
2020/12/29 05:01:05;;;;;;;6.32;2.90;;;3.50;99.80;;;;;;5021048;28;20227;-85
2020/12/29 05:03:42;;;;;;;3.78;3.22;;;3.50;99.80;;;;;;5053111;28;20221;-86
2020/12/29 05:06:10;;;;;;;3.10;2.90;;;3.50;99.80;;;;;;5082735;28;20244;-85
2020/12/29 05:08:37;;;;;;;3.65;3.00;;;3.50;99.80;;;;;;5080265;27;20229;-86
2020/12/29 05:11:05;;;;;;;3.40;2.85;;;3.50;99.80;;;;;;5079233;27;20223;-85
2020/12/29 05:13:32;;;;;;;5.32;3.35;;;3.50;99.80;;;;;;5076333;28;20220;-86
2020/12/29 05:15:59;;;;;;;3.65;3.25;;;3.60;99.80;;;;;;5076850;28;20315;-85
2020/12/29 05:18:27;;;;;;;3.90;3.03;;;3.50;99.80;;;;;;5081352;28;20283;-86
2020/12/29 05:20:54;;;;;;;4.25;3.20;;;3.50;99.80;;;;;;5072673;28;20345;-86
2020/12/29 05:23:21;;;;;;;3.58;2.90;;;3.50;99.80;;;;;;5040335;28;20600;-85
2020/12/29 05:25:49;;;;;;;2.60;2.38;;;3.50;99.80;;;;;;5064631;27;20233;-86
2020/12/29 05:28:17;;;;;;;3.13;2.83;;;3.50;99.80;;;;;;5034023;28;20251;-86
2020/12/29 05:30:52;;;;;;;3.53;3.15;;;3.50;99.80;;;;;;5031842;28;20230;-86
2020/12/29 05:33:19;;;;;;;4.80;2.60;;;3.60;99.80;;;;;;5049696;28;20228;-86
2020/12/29 05:35:46;;;;;;;3.40;2.80;;;3.60;99.80;;;;;;5058523;28;20229;-86
2020/12/29 05:38:13;;;;;;;4.78;3.13;;;3.60;99.80;;;;;;5080947;27;20323;-86
2020/12/29 05:40:40;;;;;;;4.93;3.00;;;3.60;99.80;;;;;;5084383;28;20248;-85
2020/12/29 05:43:07;;;;;;;4.30;3.17;;;3.60;99.80;;;;;;5088904;28;20232;-84
2020/12/29 05:45:35;;;;;;;2.83;2.53;;;3.60;99.80;;;;;;5081557;28;20238;-86
2020/12/29 05:48:02;;;;;;;5.25;2.30;;;3.60;99.80;;;;;;5082136;27;20231;-84
2020/12/29 05:50:31;;;;;;;2.75;2.30;;;3.60;99.80;;;;;;5073826;28;20266;-84
2020/12/29 05:53:00;;;;;;;3.85;3.25;;;3.60;99.80;;;;;;5066257;28;20299;-86
2020/12/29 05:55:27;;;;;;;3.50;2.65;;;3.60;99.80;;;;;;5058614;28;20287;-86
2020/12/29 05:58:03;;;;;;;3.97;2.65;;;3.70;99.80;;;;;;5043908;28;20224;-86
2020/12/29 06:00:30;;;;;;;2.83;2.47;;;3.70;99.80;;;;;;5045057;27;20789;-85
2020/12/29 06:03:00;;;;;;;2.30;2.10;;;3.70;99.80;;;;;;5063849;27;20236;-84
2020/12/29 06:05:28;;;;;;;1.60;1.50;;;3.80;99.80;;;;;;5048963;27;20719;-90
2020/12/29 06:07:58;;;;;;;1.55;1.45;;;3.80;99.80;;;;;;5044476;27;20222;-86
2020/12/29 06:10:26;;;;;;;5.50;2.58;;;3.80;99.80;;;;;;5067360;27;20240;-87
2020/12/29 06:12:55;;;;;;;4.45;3.60;;;3.80;99.80;;;;;;5057226;28;20233;-86
2020/12/29 06:15:28;;;;;;;5.43;4.00;;;3.80;99.80;;;;;;5045647;27;20305;-86
2020/12/29 06:17:59;;;;;;;3.90;3.10;;;3.80;99.80;;;;;;5070387;28;20242;-86
2020/12/29 06:20:35;;;;;;;3.80;3.45;;;3.80;99.80;;;;;;5071708;27;20841;-87
2020/12/29 06:23:04;;;;;;;3.17;2.88;;;3.70;99.80;;;;;;5074312;27;20231;-85
2020/12/29 06:25:34;;;;;;;4.28;3.20;;;3.70;99.80;;;;;;5049308;27;20256;-86
2020/12/29 06:28:03;;;;;;;2.72;2.53;;;3.70;99.80;;;;;;5051531;27;20309;-86
2020/12/29 06:30:31;;;;;;;2.45;2.25;;;3.70;99.80;;;;;;5060200;27;20236;-87
2020/12/29 06:32:59;;;;;;;4.00;2.17;;;3.80;99.80;;;;;;5066200;28;20227;-87
2020/12/29 06:35:27;;;;;;;2.53;2.20;;;3.70;99.80;;;;;;5060748;27;20637;-84
2020/12/29 06:38:02;;;;;;;2.25;2.05;;;3.70;99.80;;;;;;5054521;27;20232;-86
2020/12/29 06:40:30;;;;;;;2.25;2.05;;;3.70;99.80;;;;;;5036567;28;20232;-86
2020/12/29 06:42:58;;;;;;;3.08;2.22;;;3.70;99.80;;;;;;5038343;28;20236;-85
2020/12/29 06:45:32;;;;;;;4.30;2.85;;;3.60;99.80;;;;;;5038173;28;20877;-86
2020/12/29 06:48:01;;;;;;;3.17;2.90;;;3.60;99.80;;;;;;5064733;27;20325;-87
2020/12/29 06:50:29;;;;;;;3.22;2.42;;;3.60;99.80;;;;;;5078460;28;20227;-87
2020/12/29 06:52:58;;;;;;;2.97;2.65;;;3.60;99.80;;;;;;5083254;28;20228;-87
2020/12/29 06:55:29;;;;;;;3.28;2.97;;;3.60;99.80;;;;;;5081073;28;20238;-86
2020/12/29 06:57:56;;;;;;;3.38;3.08;;;3.60;99.80;;;;;;5075329;27;20711;-87
2020/12/29 07:00:25;;;;;;;6.93;5.20;;;3.50;99.80;;;;;;5081149;27;20219;-84
2020/12/29 07:02:53;;;;;;;6.00;4.00;;;3.50;99.80;;;;;;5085175;27;20308;-85
2020/12/29 07:05:22;;;;;;;5.25;4.38;;;3.50;99.80;;;;;;5070189;27;20249;-85
2020/12/29 07:08:00;;;;;;;6.07;3.85;;;3.50;99.80;;;;;;5055047;27;20386;-86
2020/12/29 07:10:32;;;;;;;5.13;3.60;;;3.50;99.80;;;;;;5065905;27;20231;-85
2020/12/29 07:13:05;;;;;;;6.22;4.13;;;3.50;99.80;;;;;;5051237;27;20302;-86
2020/12/29 07:15:43;;;;;;;7.50;4.35;;;3.50;99.80;;;;;;5057695;27;20597;-86
2020/12/29 07:18:10;;;;;;;4.68;3.40;;;3.40;99.80;;;;;;5061664;27;20216;-84
2020/12/29 07:20:40;;;;;;;5.60;4.22;;;3.40;99.80;;;;;;5081727;27;25668;-87
2020/12/29 07:23:09;;;;;;;6.13;4.50;;;3.40;99.80;;;;;;5085157;28;20243;-85
2020/12/29 07:25:37;;;;;;;5.65;3.70;;;3.40;99.80;;;;;;5084549;28;20230;-85
2020/12/29 07:28:06;;;;;;;5.63;4.45;;;3.40;99.80;;;;;;5085080;28;20274;-85
2020/12/29 07:30:35;;;;;;;3.88;3.47;;;3.40;99.80;;;;;;5083910;28;20223;-87
2020/12/29 07:33:03;;;;;;;6.38;4.70;;;3.30;99.80;;;;;;5082249;28;20228;-85
2020/12/29 07:35:32;;;;;;;8.70;5.60;;;3.30;99.80;;;;;;5082149;27;20226;-83
2020/12/29 07:38:07;;;;;;;7.82;4.80;;;3.30;99.80;;;;;;5060872;27;20226;-85
2020/12/29 07:40:34;;;;;;;6.65;4.75;;;3.30;99.80;;;;;;5059396;28;20277;-82
2020/12/29 07:43:01;;;;;;;6.75;5.10;;;3.30;99.80;;;;;;5036286;28;20286;-84
2020/12/29 07:45:28;;;;;;;7.38;4.72;;;3.40;99.80;;;;;;5055023;28;20263;-83
2020/12/29 07:47:59;;;;;;;11.40;5.25;;;3.40;99.80;;;;;;5069542;28;20283;-85
2020/12/29 07:50:26;;;;;;;7.28;5.22;;;3.40;99.80;;;;;;5088624;27;20250;-85
2020/12/29 07:53:01;;;;;;;8.25;4.85;;;3.40;99.80;;;;;;5070850;28;20221;-86
2020/12/29 07:55:28;;;;;;;6.65;5.15;;;3.50;99.80;;;;;;5075363;28;20692;-88
2020/12/29 07:57:58;;;;;;;8.30;4.85;;;3.50;99.80;;;;;;5087812;28;20228;-85
2020/12/29 08:00:27;;;;;;;9.60;6.00;;;3.50;99.80;;;;;;5090174;27;20274;-84
2020/12/29 08:02:54;;;;;;;5.88;4.03;;;3.50;99.80;;;;;;5089903;27;20228;-83
2020/12/29 08:05:22;;;;;;;7.72;4.80;;;3.50;99.80;;;;;;5085841;28;20856;-85
2020/12/29 08:07:53;;;;;;;7.20;5.35;;;3.50;99.80;;;;;;5079543;27;20338;-85
2020/12/29 08:10:22;;;;;;;5.82;4.40;;;3.50;99.80;;;;;;5067912;27;20600;-83
2020/12/29 08:12:52;;;;;;;5.50;4.20;;;3.50;99.80;;;;;;5053781;28;20511;-86
2020/12/29 08:15:26;;;;;;;6.55;4.55;;;3.50;99.80;;;;;;5074406;27;20225;-85
2020/12/29 08:18:01;;;;;;;6.05;4.20;;;3.50;99.80;;;;;;5075416;27;20554;-83
2020/12/29 08:20:28;;;;;;;5.15;4.15;;;3.60;99.80;;;;;;5048164;28;20331;-85
2020/12/29 08:22:55;;;;;;;6.88;4.15;;;3.60;99.80;;;;;;5059002;28;20241;-84
2020/12/29 08:25:24;;;;;;;5.90;4.13;;;3.60;99.80;;;;;;5052344;28;20239;-87
2020/12/29 08:27:51;;;;;;;6.47;3.80;;;3.60;99.80;;;;;;5064900;28;20241;-86
2020/12/29 08:30:21;;;;;;;4.85;3.83;;;3.60;99.80;;;;;;5089630;28;20594;-85
2020/12/29 08:32:54;;;;;;;5.85;4.13;;;3.70;99.80;;;;;;5083484;28;20235;-85
2020/12/29 08:35:21;;;;;;;5.45;3.60;;;3.70;99.80;;;;;;5084959;27;20226;-87
2020/12/29 08:38:09;;;;;;;3.53;3.22;;;3.80;99.80;;;;;;5082819;27;20227;-84
2020/12/29 08:40:45;;;;;;;3.80;3.00;;;3.80;99.80;;;;;;5087391;27;20226;-84
2020/12/29 08:43:15;;;;;;;3.92;2.85;;;3.80;99.80;;;;;;5090186;27;20246;-83
2020/12/29 08:45:42;;;;;;;3.58;3.20;;;3.80;99.80;;;;;;5091579;27;20235;-83
2020/12/29 08:48:09;;;;;;;4.80;3.35;;;3.80;99.80;;;;;;5092698;28;20246;-86
2020/12/29 08:50:37;;;;;;;3.85;2.92;;;3.80;99.80;;;;;;5093193;28;20295;-86
2020/12/29 08:53:06;;;;;;;4.03;2.25;;;3.90;99.80;;;;;;5087929;27;20230;-86
2020/12/29 08:55:35;;;;;;;3.53;3.10;;;3.80;99.80;;;;;;5085829;28;20267;-86
2020/12/29 08:58:03;;;;;;;3.15;2.63;;;3.90;99.80;;;;;;5086465;28;20286;-86
2020/12/29 09:00:32;;;;;;;4.10;2.88;;;3.90;99.80;;;;;;5089999;28;20279;-86
2020/12/29 09:02:59;;;;;;;3.90;2.67;;;3.90;99.80;;;;;;5082668;28;20231;-86
2020/12/29 09:05:28;;;;;;;3.92;2.78;;;3.90;99.80;;;;;;5073269;28;20292;-84
2020/12/29 09:07:56;;;;;;;3.22;2.45;;;3.90;99.80;;;;;;5082704;27;20290;-84
2020/12/29 09:10:24;;;;;;;4.50;2.70;;;3.90;99.80;;;;;;5085448;28;20290;-85
2020/12/29 09:12:51;;;;;;;4.68;2.95;;;4.00;99.80;;;;;;5086931;27;20307;-84
2020/12/29 09:15:27;;;;;;;2.60;2.40;;;4.00;99.80;;;;;;5084810;27;20227;-85
2020/12/29 09:17:59;;;;;;;6.25;2.60;;;4.00;99.80;;;;;;5079697;28;20275;-87
2020/12/29 09:20:28;;;;;;;2.75;2.35;;;4.00;99.80;;;;;;5087101;28;20308;-86
2020/12/29 09:23:00;;;;;;;3.25;2.15;;;4.10;99.80;;;;;;5083003;27;20281;-85
2020/12/29 09:25:36;;;;;;;3.50;2.88;;;4.10;99.80;;;;;;5086344;28;20220;-83
2020/12/29 09:28:17;;;;;;;2.45;2.25;;;4.00;99.80;;;;;;5079275;28;20302;-86
2020/12/29 09:30:47;;;;;;;3.15;2.60;;;4.10;99.80;;;;;;5077894;28;20383;-86
2020/12/29 09:33:21;;;;;;;3.85;2.42;;;4.00;99.80;;;;;;5079782;27;20320;-87
2020/12/29 09:35:49;;;;;;;3.03;2.70;;;4.00;99.80;;;;;;5082177;28;20326;-87
2020/12/29 09:38:17;;;;;;;3.25;2.53;;;4.00;99.80;;;;;;5078934;28;20230;-86
2020/12/29 09:40:57;;;;;;;2.53;2.33;;;4.10;99.80;;;;;;5086179;28;20250;-85
2020/12/29 09:43:24;;;;;;;3.10;2.50;;;4.10;99.80;;;;;;5083661;28;20764;-86
2020/12/29 09:45:52;;;;;;;3.45;2.55;;;4.10;99.80;;;;;;5087343;27;20226;-83
2020/12/29 09:48:20;;;;;;;3.47;2.60;;;4.20;99.80;;;;;;5086188;28;20227;-83
2020/12/29 09:50:47;;;;;;;5.88;3.10;;;4.10;99.80;;;;;;5086921;27;20283;-85
2020/12/29 09:53:14;;;;;;;3.17;2.50;;;4.20;99.80;;;;;;5083394;27;21361;-84
2020/12/29 09:55:41;;;;;;;3.10;2.80;;;4.20;99.80;;;;;;5087226;28;20231;-86
2020/12/29 09:58:08;;;;;;;2.90;2.60;;;4.20;99.80;;;;;;5081612;28;20224;-86
2020/12/29 10:00:36;;;;;;;3.33;2.40;;;4.20;99.80;;;;;;5081959;28;20710;-84
2020/12/29 10:03:04;;;;;;;3.20;2.90;;;4.20;99.80;;;;;;5086073;27;20233;-87
2020/12/29 10:05:31;;;;;;;4.10;3.05;;;4.20;99.80;;;;;;5089278;27;20230;-86
2020/12/29 10:08:01;;;;;;;4.43;3.60;;;4.20;99.80;;;;;;5079221;27;20231;-86
2020/12/29 10:10:28;;;;;;;5.38;4.00;;;4.20;99.80;;;;;;5087590;28;20311;-85
2020/12/29 10:12:56;;;;;;;3.22;2.70;;;4.30;99.80;;;;;;5088287;27;20264;-85
2020/12/29 10:15:23;;;;;;;9.15;3.75;;;4.30;99.80;;;;;;5087504;28;20229;-87
2020/12/29 10:17:50;;;;;;;4.75;3.33;;;4.40;99.80;;;;;;5081500;28;20255;-84
2020/12/29 10:20:18;;;;;;;4.40;3.10;;;4.60;99.80;;;;;;5082284;28;20224;-84
2020/12/29 10:22:45;;;;;;;3.92;2.85;;;4.70;99.80;;;;;;5085606;28;20249;-85
2020/12/29 10:25:14;;;;;;;4.07;3.08;;;4.90;99.80;;;;;;5082119;28;20702;-86
2020/12/29 10:27:43;;;;;;;3.88;2.80;;;5.00;99.80;;;;;;5077954;27;20288;-86
2020/12/29 10:30:10;;;;;;;3.85;2.80;;;5.10;99.80;;;;;;5076750;28;20226;-87
2020/12/29 10:32:37;;;;;;;3.75;3.10;;;5.00;99.80;;;;;;5085449;27;20289;-88
2020/12/29 10:35:04;;;;;;;4.45;2.85;;;5.00;99.80;;;;;;5086947;27;20225;-87
2020/12/29 10:37:33;;;;;;;5.95;3.10;;;4.90;99.80;;;;;;5072304;28;20393;-87
2020/12/29 10:40:00;;;;;;;4.70;3.22;;;4.90;99.80;;;;;;5079603;27;20588;-86
2020/12/29 10:42:29;;;;;;;4.15;3.15;;;4.90;99.80;;;;;;5073916;28;20243;-86
2020/12/29 10:44:56;;;;;;;4.45;3.47;;;4.90;99.80;;;;;;5083860;28;20226;-86
2020/12/29 10:47:23;;;;;;;3.85;3.08;;;5.00;99.80;;;;;;5081630;27;20223;-87
2020/12/29 10:49:50;;;;;;;3.97;3.00;;;5.00;99.80;;;;;;5079097;28;20228;-86
2020/12/29 10:52:17;;;;;;;6.25;3.05;;;5.00;99.80;;;;;;5075640;28;20230;-85
2020/12/29 10:54:45;;;;;;;4.38;3.67;;;5.00;99.80;;;;;;5075254;28;20437;-86
2020/12/29 10:57:12;;;;;;;5.10;3.70;;;5.00;99.80;;;;;;5081565;27;20238;-86
2020/12/29 10:59:39;;;;;;;3.47;3.17;;;5.10;99.80;;;;;;5082012;27;20956;-85
2020/12/29 11:02:07;;;;;;;4.55;3.25;;;5.20;99.80;;;;;;5083770;28;20230;-87
2020/12/29 11:04:35;;;;;;;7.82;3.40;;;5.30;99.80;;;;;;5080728;28;20238;-87
2020/12/29 11:07:02;;;;;;;4.32;3.45;;;5.40;99.80;;;;;;5077600;27;20233;-86
2020/12/29 11:09:30;;;;;;;4.35;3.22;;;5.50;99.80;;;;;;5075097;27;21019;-84
2020/12/29 11:11:57;;;;;;;4.05;3.65;;;5.50;99.80;;;;;;5073456;28;20234;-87
2020/12/29 11:14:27;;;;;;;2.97;2.70;;;5.40;99.80;;;;;;5085375;28;20226;-86
2020/12/29 11:16:54;;;;;;;3.95;3.10;;;5.40;99.80;;;;;;5080812;27;20228;-87
2020/12/29 11:19:21;;;;;;;3.15;2.85;;;5.40;99.80;;;;;;5058824;28;20222;-85
2020/12/29 11:21:48;;;;;;;3.60;2.80;;;5.30;99.80;;;;;;5054725;28;20301;-86
2020/12/29 11:24:16;;;;;;;3.28;2.95;;;5.20;99.80;;;;;;5060391;28;20235;-85
2020/12/29 11:26:44;;;;;;;3.25;2.40;;;5.30;99.80;;;;;;5065586;27;20261;-85
2020/12/29 11:29:12;;;;;;;5.78;2.80;;;5.30;99.80;;;;;;5057049;28;20230;-85
2020/12/29 11:31:41;;;;;;;3.40;3.00;;;5.40;99.80;;;;;;5066483;28;20227;-86
2020/12/29 11:34:08;;;;;;;4.20;2.63;;;5.40;99.80;;;;;;5046658;28;20227;-84
2020/12/29 11:36:35;;;;;;;3.17;2.60;;;5.50;99.80;;;;;;5035233;28;20229;-86
2020/12/29 11:39:03;;;;;;;4.68;3.40;;;5.50;99.80;;;;;;5027586;28;20234;-86
2020/12/29 11:41:30;;;;;;;4.03;3.30;;;5.70;99.80;;;;;;5024679;28;20292;-84
2020/12/29 11:43:58;;;;;;;8.00;3.53;;;5.70;99.80;;;;;;5040115;28;20651;-85
2020/12/29 11:46:26;;;;;;;4.95;2.90;;;5.60;99.80;;;;;;5033396;28;20254;-85
2020/12/29 11:48:53;;;;;;;3.00;2.70;;;5.50;99.80;;;;;;5037625;28;20231;-85
2020/12/29 11:51:20;;;;;;;4.55;3.33;;;5.50;99.80;;;;;;5064734;28;20975;-84
2020/12/29 11:53:47;;;;;;;6.40;4.50;;;5.60;99.80;;;;;;5068776;28;20231;-85
2020/12/29 11:56:14;;;;;;;5.00;3.53;;;5.70;99.80;;;;;;5042671;28;20648;-85
2020/12/29 11:58:41;;;;;;;5.72;3.45;;;5.80;99.80;;;;;;5050745;28;20286;-84
2020/12/29 12:01:08;;;;;;;3.80;3.05;;;5.70;99.80;;;;;;5039594;28;20222;-85
2020/12/29 12:03:36;;;;;;;4.22;3.17;;;5.70;99.80;;;;;;5052573;28;20227;-84
2020/12/29 12:06:03;;;;;;;3.35;2.22;;;5.60;99.80;;;;;;5046190;28;20346;-85
2020/12/29 12:08:30;;;;;;;3.95;2.38;;;5.60;99.80;;;;;;5028835;28;20236;-84
2020/12/29 12:10:58;;;;;;;2.90;2.42;;;5.70;99.80;;;;;;5025486;28;20225;-85
2020/12/29 12:13:25;;;;;;;3.60;3.10;;;5.80;99.80;;;;;;5036432;28;20396;-85
2020/12/29 12:15:55;;;;;;;2.40;2.20;;;5.90;99.80;;;;;;5023047;28;25083;-85
2020/12/29 12:18:39;;;;;;;2.90;2.42;;;5.90;99.80;;;;;;5082988;27;20721;-85
2020/12/29 12:21:06;;;;;;;2.17;2.08;;;5.80;99.80;;;;;;5086491;27;20226;-85
2020/12/29 12:23:33;;;;;;;3.35;2.47;;;5.70;99.80;;;;;;5072328;27;20283;-85
2020/12/29 12:26:00;;;;;;;2.67;2.00;;;5.60;99.80;;;;;;5084159;27;20240;-84
2020/12/29 12:28:29;;;;;;;3.95;2.00;;;5.50;99.80;;;;;;5055929;27;20229;-84
2020/12/29 12:30:56;;;;;;;3.63;2.10;;;5.60;99.80;;;;;;5050421;28;20219;-87
2020/12/29 12:33:23;;;;;;;2.15;1.80;;;5.60;99.80;;;;;;5066038;28;20232;-85
2020/12/29 12:35:51;;;;;;;2.28;2.00;;;6.90;99.80;;;;;;5081326;27;20372;-85
2020/12/29 12:38:18;;;;;;;2.20;2.00;;;7.70;99.80;;;;;;5053997;27;20247;-85
2020/12/29 12:40:45;;;;;;;3.78;1.90;;;7.60;99.80;;;;;;5071561;27;20232;-85
2020/12/29 12:43:12;;;;;;;10.45;2.20;;;7.30;99.80;;;;;;5056967;27;20341;-85
2020/12/29 12:45:39;;;;;;;3.00;2.10;;;7.00;99.80;;;;;;5050486;27;20226;-85
2020/12/29 12:48:06;;;;;;;1.90;1.70;;;6.80;99.80;;;;;;5084283;27;20223;-85
2020/12/29 12:50:35;;;;;;;2.33;2.00;;;6.80;99.80;;;;;;5087458;27;20606;-85
2020/12/29 12:53:06;;;;;;;4.93;2.30;;;7.50;99.80;;;;;;5081682;27;20271;-85
2020/12/29 12:55:34;;;;;;;1.80;1.70;;;7.40;99.80;;;;;;5084367;27;20227;-85
2020/12/29 12:58:03;;;;;;;2.60;1.98;;;7.10;99.80;;;;;;5092481;27;20308;-84
2020/12/29 13:00:30;;;;;;;2.97;2.25;;;6.80;99.80;;;;;;5083018;27;20226;-85
2020/12/29 13:02:57;;;;;;;1.98;1.48;;;6.50;99.80;;;;;;5088618;27;20226;-85
2020/12/29 13:05:24;;;;;;;2.25;2.13;;;7.10;99.80;;;;;;5085729;27;20240;-85